createdAt,value
2023-02-27T00:00:20.910Z,-1.56
2023-02-27T00:02:51.434Z,-1.66
2023-02-27T00:05:20.122Z,-1.61
2023-02-27T00:07:47.585Z,-1.59
2023-02-27T00:10:16.129Z,-1.52
2023-02-27T00:12:45.630Z,-1.52
2023-02-27T00:15:16.530Z,-1.40
2023-02-27T00:17:44.691Z,-1.48
2023-02-27T00:20:14.949Z,-1.50
2023-02-27T00:22:43.299Z,-1.38
2023-02-27T00:25:11.749Z,-1.50
2023-02-27T00:27:39.268Z,-1.60
2023-02-27T00:30:12.372Z,-1.60
2023-02-27T00:32:40.526Z,-1.64
2023-02-27T00:35:11.333Z,-1.67
2023-02-27T00:37:39.692Z,-1.75
2023-02-27T00:40:09.043Z,-1.75
2023-02-27T00:42:36.807Z,-1.84
2023-02-27T00:45:05.710Z,-1.80
2023-02-27T00:47:35.391Z,-1.86
2023-02-27T00:50:02.972Z,-1.78
2023-02-27T00:52:30.522Z,-1.72
2023-02-27T00:54:58.026Z,-1.80
2023-02-27T00:57:25.512Z,-1.67
2023-02-27T00:59:53.031Z,-1.69
2023-02-27T01:02:20.623Z,-1.63
2023-02-27T01:04:49.455Z,-1.56
2023-02-27T01:07:16.944Z,-1.58
2023-02-27T01:09:44.642Z,-1.62
2023-02-27T01:12:12.203Z,-1.58
2023-02-27T01:14:39.767Z,-1.46
2023-02-27T01:17:07.398Z,-1.35
2023-02-27T01:19:34.861Z,-1.25
2023-02-27T01:22:03.841Z,-1.20
2023-02-27T01:24:31.632Z,-1.13
2023-02-27T01:26:59.176Z,-1.12
2023-02-27T01:29:26.948Z,-1.21
2023-02-27T01:31:54.589Z,-1.40
2023-02-27T01:34:22.228Z,-1.58
2023-02-27T01:36:49.739Z,-1.68
2023-02-27T01:39:18.673Z,-1.59
2023-02-27T01:41:46.139Z,-1.63
2023-02-27T01:44:14.946Z,-1.62
2023-02-27T01:46:42.931Z,-1.58
2023-02-27T01:49:16.094Z,-1.77
2023-02-27T01:51:47.786Z,-1.63
2023-02-27T01:54:20.349Z,-1.69
2023-02-27T01:56:48.485Z,-1.88
2023-02-27T01:59:17.385Z,-1.82
2023-02-27T02:01:45.526Z,-1.81
2023-02-27T02:04:19.481Z,-1.78
2023-02-27T02:06:51.470Z,-1.76
2023-02-27T02:09:22.508Z,-1.85
2023-02-27T02:11:50.136Z,-1.88
2023-02-27T02:14:17.660Z,-1.92
2023-02-27T02:17:06.524Z,-1.90
2023-02-27T02:20:16.170Z,-1.79
2023-02-27T02:23:07.408Z,-1.91
2023-02-27T02:26:11.450Z,-1.89
2023-02-27T02:29:17.553Z,-1.87
2023-02-27T02:32:13.274Z,-1.90
2023-02-27T02:35:22.828Z,-1.94
2023-02-27T02:38:29.617Z,-2.01
2023-02-27T02:41:06.328Z,-2.05
2023-02-27T02:43:42.576Z,-2.04
2023-02-27T02:46:15.438Z,-1.99
2023-02-27T02:48:48.392Z,-1.97
2023-02-27T02:51:21.347Z,-1.94
2023-02-27T02:53:56.841Z,-1.93
2023-02-27T02:56:29.149Z,-1.92
2023-02-27T02:59:02.223Z,-1.97
2023-02-27T03:01:37.050Z,-1.85
2023-02-27T03:04:09.301Z,-1.86
2023-02-27T03:06:41.601Z,-1.95
2023-02-27T03:09:17.245Z,-2.11
2023-02-27T03:11:48.519Z,-2.00
2023-02-27T03:14:22.489Z,-1.93
2023-02-27T03:16:54.392Z,-1.87
2023-02-27T03:19:25.832Z,-2.17
2023-02-27T03:21:59.737Z,-2.13
2023-02-27T03:24:33.460Z,-2.15
2023-02-27T03:27:03.321Z,-2.23
2023-02-27T03:29:38.258Z,-2.18
2023-02-27T03:32:12.196Z,-2.09
2023-02-27T03:34:42.614Z,-2.03
2023-02-27T03:37:21.951Z,-2.16
2023-02-27T03:39:55.160Z,-2.25
2023-02-27T03:42:30.796Z,-2.37
2023-02-27T03:45:05.350Z,-2.31
2023-02-27T03:47:34.256Z,-2.42
2023-02-27T03:50:01.760Z,-2.34
2023-02-27T03:52:30.536Z,-2.34
2023-02-27T03:55:04.424Z,-2.18
2023-02-27T03:57:32.926Z,-2.31
2023-02-27T04:00:00.645Z,-2.39
2023-02-27T04:02:29.028Z,-2.21
2023-02-27T04:04:56.649Z,-2.36
2023-02-27T04:07:34.710Z,-2.31
2023-02-27T04:10:27.844Z,-2.30
2023-02-27T04:13:32.599Z,-2.50
2023-02-27T04:16:19.033Z,-2.42
2023-02-27T04:18:59.805Z,-2.30
2023-02-27T04:21:35.826Z,-2.18
2023-02-27T04:24:13.404Z,-2.38
2023-02-27T04:26:47.561Z,-2.39
2023-02-27T04:29:18.459Z,-2.46
2023-02-27T04:31:55.325Z,-2.27
2023-02-27T04:34:30.792Z,-2.14
2023-02-27T04:37:02.839Z,-2.32
2023-02-27T04:39:34.182Z,-2.32
2023-02-27T04:42:06.671Z,-2.38
2023-02-27T04:44:37.095Z,-2.10
2023-02-27T04:47:08.212Z,-2.48
2023-02-27T04:49:39.241Z,-2.26
2023-02-27T04:52:13.784Z,-2.25
2023-02-27T04:54:46.069Z,-2.11
2023-02-27T04:57:21.721Z,-1.91
2023-02-27T04:59:53.437Z,-2.16
2023-02-27T05:02:25.293Z,-2.37
2023-02-27T05:04:57.776Z,-2.09
2023-02-27T05:07:30.438Z,-2.19
2023-02-27T05:10:02.663Z,-2.20
2023-02-27T05:12:36.215Z,-2.27
2023-02-27T05:15:09.985Z,-2.26
2023-02-27T05:17:41.980Z,-2.34
2023-02-27T05:20:13.001Z,-2.32
2023-02-27T05:22:47.947Z,-2.43
2023-02-27T05:25:24.830Z,-2.35
2023-02-27T05:27:58.937Z,-2.45
2023-02-27T05:30:34.984Z,-2.63
2023-02-27T05:33:07.658Z,-2.54
2023-02-27T05:35:39.505Z,-2.56
2023-02-27T05:38:12.998Z,-2.60
2023-02-27T05:40:45.260Z,-2.61
2023-02-27T05:43:19.547Z,-2.56
2023-02-27T05:45:51.447Z,-2.59
2023-02-27T05:48:25.496Z,-2.57
2023-02-27T05:50:54.217Z,-2.53
2023-02-27T05:53:25.600Z,-2.55
2023-02-27T05:55:55.288Z,-2.53
2023-02-27T05:58:27.698Z,-2.57
2023-02-27T06:00:59.088Z,-2.49
2023-02-27T06:03:28.264Z,-2.63
2023-02-27T06:05:58.124Z,-2.52
2023-02-27T06:08:26.383Z,-2.55
2023-02-27T06:10:55.189Z,-2.54
2023-02-27T06:13:25.932Z,-2.42
2023-02-27T06:15:54.004Z,-2.38
2023-02-27T06:18:21.748Z,-2.45
2023-02-27T06:20:49.884Z,-2.47
2023-02-27T06:23:17.589Z,-2.53
2023-02-27T06:25:45.313Z,-2.47
2023-02-27T06:28:13.014Z,-2.38
2023-02-27T06:30:42.007Z,-2.45
2023-02-27T06:33:09.671Z,-2.47
2023-02-27T06:35:37.157Z,-2.41
2023-02-27T06:38:05.144Z,-2.45
2023-02-27T06:40:32.584Z,-2.34
2023-02-27T06:43:00.048Z,-2.33
2023-02-27T06:45:27.538Z,-2.23
2023-02-27T06:47:56.316Z,-2.38
2023-02-27T06:50:23.880Z,-2.31
2023-02-27T06:52:51.335Z,-2.19
2023-02-27T06:55:20.773Z,-2.13
2023-02-27T06:57:48.541Z,-2.18
2023-02-27T07:00:17.971Z,-2.02
2023-02-27T07:02:45.807Z,-2.00
2023-02-27T07:05:14.618Z,-1.88
2023-02-27T07:07:42.120Z,-1.95
2023-02-27T07:10:12.662Z,-2.01
2023-02-27T07:12:40.496Z,-2.13
2023-02-27T07:15:09.037Z,-2.04
2023-02-27T07:17:37.774Z,-2.02
2023-02-27T07:20:06.512Z,-2.07
2023-02-27T07:22:35.700Z,-2.03
2023-02-27T07:25:03.232Z,-1.88
2023-02-27T07:27:30.810Z,-1.92
2023-02-27T07:29:58.318Z,-1.88
2023-02-27T07:32:25.859Z,-1.75
2023-02-27T07:34:53.454Z,-1.21
2023-02-27T07:37:21.128Z,-0.43
2023-02-27T07:39:50.536Z,-0.20
2023-02-27T07:42:18.091Z,0.16
2023-02-27T07:44:45.563Z,0.32
2023-02-27T07:47:13.034Z,0.76
2023-02-27T07:49:40.497Z,1.15
2023-02-27T07:52:08.304Z,1.66
2023-02-27T07:54:37.462Z,2.25
2023-02-27T07:57:06.650Z,2.38
2023-02-27T07:59:34.112Z,2.55
2023-02-27T08:02:01.645Z,2.64
2023-02-27T08:04:29.147Z,2.47
2023-02-27T08:06:57.304Z,1.98
2023-02-27T08:09:24.770Z,2.09
2023-02-27T08:11:52.232Z,1.47
2023-02-27T08:14:21.064Z,1.55
2023-02-27T08:16:48.544Z,1.39
2023-02-27T08:19:16.151Z,2.06
2023-02-27T08:21:43.790Z,1.96
2023-02-27T08:24:11.653Z,2.29
2023-02-27T08:26:39.238Z,1.46
2023-02-27T08:29:06.889Z,1.32
2023-02-27T08:31:36.183Z,2.04
2023-02-27T08:34:10.127Z,2.48
2023-02-27T08:36:38.794Z,3.44
2023-02-27T08:39:06.692Z,3.16
2023-02-27T08:41:34.305Z,2.19
2023-02-27T08:44:01.789Z,1.58
2023-02-27T08:46:29.731Z,2.24
2023-02-27T08:48:58.748Z,2.45
2023-02-27T08:51:26.631Z,2.82
2023-02-27T08:53:55.877Z,3.39
2023-02-27T08:56:23.350Z,4.04
2023-02-27T08:58:50.836Z,3.23
2023-02-27T09:01:18.763Z,2.66
2023-02-27T09:03:46.271Z,2.83
2023-02-27T09:06:15.090Z,2.66
2023-02-27T09:08:42.548Z,2.46
2023-02-27T09:11:10.010Z,3.03
2023-02-27T09:13:37.476Z,3.28
2023-02-27T09:16:05.341Z,3.44
2023-02-27T09:18:32.812Z,2.69
2023-02-27T09:21:01.042Z,2.21
2023-02-27T09:23:29.890Z,2.35
2023-02-27T09:25:57.385Z,1.76
2023-02-27T09:28:24.840Z,1.31
2023-02-27T09:30:52.319Z,1.11
2023-02-27T09:33:19.843Z,1.17
2023-02-27T09:35:47.331Z,0.49
2023-02-27T09:38:14.794Z,0.46
2023-02-27T09:40:45.605Z,0.38
2023-02-27T09:43:17.946Z,0.20
2023-02-27T09:45:47.946Z,0.27
2023-02-27T09:48:26.867Z,0.61
2023-02-27T09:50:54.596Z,0.92
2023-02-27T09:53:27.312Z,0.77
2023-02-27T09:56:01.217Z,0.47
2023-02-27T09:58:42.481Z,0.80
2023-02-27T10:01:16.876Z,1.27
2023-02-27T10:04:02.953Z,1.61
2023-02-27T10:06:37.374Z,1.79
2023-02-27T10:09:17.253Z,1.03
2023-02-27T10:11:57.339Z,2.12
2023-02-27T10:14:33.440Z,2.67
2023-02-27T10:17:06.551Z,1.72
2023-02-27T10:19:38.079Z,1.30
2023-02-27T10:22:11.036Z,1.17
2023-02-27T10:24:43.601Z,1.39
2023-02-27T10:27:19.383Z,1.32
2023-02-27T10:29:47.076Z,1.06
2023-02-27T10:32:18.485Z,0.78
2023-02-27T10:34:49.939Z,0.73
2023-02-27T10:37:21.811Z,0.81
2023-02-27T10:39:52.695Z,1.21
2023-02-27T10:42:23.369Z,1.03
2023-02-27T10:44:53.534Z,0.99
2023-02-27T10:47:23.674Z,1.77
2023-02-27T10:49:52.030Z,2.56
2023-02-27T10:52:20.027Z,3.48
2023-02-27T10:54:48.403Z,3.57
2023-02-27T10:57:30.307Z,3.47
2023-02-27T11:00:00.232Z,4.86
2023-02-27T11:02:33.746Z,3.94
2023-02-27T11:05:01.532Z,3.95
2023-02-27T11:07:33.201Z,3.44
2023-02-27T11:10:03.668Z,3.04
2023-02-27T11:12:35.282Z,2.33
2023-02-27T11:15:21.716Z,1.91
2023-02-27T11:17:49.222Z,1.87
2023-02-27T11:20:35.379Z,2.31
2023-02-27T11:23:05.748Z,2.45
2023-02-27T11:25:33.951Z,2.01
2023-02-27T11:28:21.078Z,1.80
2023-02-27T11:30:58.876Z,1.14
2023-02-27T11:33:27.357Z,1.34
2023-02-27T11:35:58.507Z,1.43
2023-02-27T11:38:29.721Z,1.77
2023-02-27T11:40:59.222Z,2.30
2023-02-27T11:43:31.012Z,2.55
2023-02-27T11:46:16.247Z,2.06
2023-02-27T11:48:51.547Z,1.58
2023-02-27T11:51:30.782Z,1.46
2023-02-27T11:54:15.606Z,1.13
2023-02-27T11:56:46.950Z,1.02
2023-02-27T11:59:26.601Z,0.91
2023-02-27T12:02:00.316Z,1.11
2023-02-27T12:04:35.912Z,1.41
2023-02-27T12:07:11.614Z,1.49
2023-02-27T12:09:45.202Z,1.77
2023-02-27T12:12:21.512Z,1.94
2023-02-27T12:14:58.508Z,1.91
2023-02-27T12:17:30.402Z,1.89
2023-02-27T12:20:32.871Z,2.31
2023-02-27T12:23:04.234Z,2.00
2023-02-27T12:25:39.170Z,1.93
2023-02-27T12:28:20.050Z,1.71
2023-02-27T12:31:01.675Z,1.47
2023-02-27T12:33:37.291Z,1.54
2023-02-27T12:36:06.158Z,1.89
2023-02-27T12:38:35.960Z,2.22
2023-02-27T12:41:27.594Z,2.15
2023-02-27T12:44:07.998Z,2.71
2023-02-27T12:46:47.842Z,3.11
2023-02-27T12:49:36.868Z,3.28
2023-02-27T12:52:19.833Z,2.81
2023-02-27T12:55:02.617Z,2.71
2023-02-27T12:57:56.648Z,2.27
2023-02-27T13:00:30.038Z,2.03
2023-02-27T13:03:05.659Z,2.70
2023-02-27T13:05:40.478Z,3.04
2023-02-27T13:08:25.912Z,2.17
2023-02-27T13:11:01.856Z,1.88
2023-02-27T13:13:37.139Z,1.79
2023-02-27T13:16:08.079Z,0.99
2023-02-27T13:18:45.365Z,2.35
2023-02-27T13:21:16.641Z,3.97
2023-02-27T13:23:58.255Z,4.86
2023-02-27T13:26:29.952Z,4.48
2023-02-27T13:28:59.022Z,4.59
2023-02-27T13:31:37.097Z,3.05
2023-02-27T13:34:15.570Z,1.45
2023-02-27T13:36:46.256Z,1.37
2023-02-27T13:39:52.520Z,1.32
2023-02-27T13:42:53.937Z,1.47
2023-02-27T13:45:48.394Z,1.25
2023-02-27T13:48:41.959Z,1.87
2023-02-27T13:51:27.298Z,2.54
2023-02-27T13:54:09.819Z,1.95
2023-02-27T13:56:37.758Z,2.16
2023-02-27T13:59:12.981Z,1.37
2023-02-27T14:01:40.972Z,1.22
2023-02-27T14:04:08.873Z,1.33
2023-02-27T14:06:45.678Z,2.38
2023-02-27T14:09:18.060Z,3.04
2023-02-27T14:11:54.939Z,2.30
2023-02-27T14:14:45.960Z,1.54
2023-02-27T14:17:15.527Z,1.43
2023-02-27T14:19:57.002Z,1.38
2023-02-27T14:22:37.178Z,1.12
2023-02-27T14:25:16.939Z,1.07
2023-02-27T14:27:52.570Z,1.09
2023-02-27T14:30:44.281Z,0.94
2023-02-27T14:33:33.430Z,1.18
2023-02-27T14:36:10.645Z,1.27
2023-02-27T14:38:39.667Z,0.96
2023-02-27T14:41:16.793Z,0.99
2023-02-27T14:43:45.900Z,1.14
2023-02-27T14:46:22.888Z,0.86
2023-02-27T14:48:54.688Z,0.70
2023-02-27T14:51:22.654Z,0.63
2023-02-27T14:54:02.962Z,0.50
2023-02-27T14:56:30.565Z,0.75
2023-02-27T14:59:04.286Z,0.75
2023-02-27T15:01:36.763Z,0.79
2023-02-27T15:04:07.852Z,1.20
2023-02-27T15:06:42.776Z,1.68
2023-02-27T15:09:22.604Z,1.59
2023-02-27T15:12:02.648Z,1.65
2023-02-27T15:14:34.274Z,1.25
2023-02-27T15:17:02.285Z,1.25
2023-02-27T15:19:31.254Z,1.05
2023-02-27T15:22:00.389Z,1.12
2023-02-27T15:24:35.287Z,1.03
2023-02-27T15:27:16.515Z,0.96
2023-02-27T15:29:46.376Z,1.19
2023-02-27T15:32:18.656Z,1.39
2023-02-27T15:34:47.610Z,0.96
2023-02-27T15:37:22.007Z,0.78
2023-02-27T15:39:53.538Z,0.64
2023-02-27T15:42:25.212Z,0.96
2023-02-27T15:44:53.370Z,0.90
2023-02-27T15:47:24.934Z,0.89
2023-02-27T15:49:57.105Z,0.51
2023-02-27T15:52:26.478Z,0.62
2023-02-27T15:55:02.268Z,0.59
2023-02-27T15:57:30.623Z,0.57
2023-02-27T15:59:59.467Z,0.46
2023-02-27T16:02:29.861Z,0.50
2023-02-27T16:04:58.030Z,0.58
2023-02-27T16:07:28.479Z,0.57
2023-02-27T16:10:03.948Z,0.71
2023-02-27T16:12:34.022Z,0.82
2023-02-27T16:15:22.852Z,0.60
2023-02-27T16:17:55.526Z,0.56
2023-02-27T16:20:32.505Z,0.54
2023-02-27T16:23:03.585Z,0.67
2023-02-27T16:25:32.860Z,0.30
2023-02-27T16:28:00.580Z,0.24
2023-02-27T16:30:28.620Z,0.02
2023-02-27T16:33:01.824Z,0.15
2023-02-27T16:35:30.269Z,0.02
2023-02-27T16:38:01.813Z,-0.04
2023-02-27T16:40:30.049Z,-0.01
2023-02-27T16:42:59.109Z,-0.18
2023-02-27T16:45:28.657Z,-0.08
2023-02-27T16:47:58.230Z,-0.28
2023-02-27T16:50:30.800Z,-0.10
2023-02-27T16:52:58.518Z,-0.02
2023-02-27T16:55:26.902Z,-0.25
2023-02-27T16:57:54.651Z,-0.33
2023-02-27T17:00:23.666Z,-0.41
2023-02-27T17:02:51.626Z,-0.29
2023-02-27T17:05:19.941Z,-0.31
2023-02-27T17:07:48.626Z,-0.53
2023-02-27T17:10:18.736Z,-0.58
2023-02-27T17:12:46.907Z,-0.51
2023-02-27T17:15:14.887Z,-0.51
2023-02-27T17:17:44.506Z,-0.54
2023-02-27T17:20:13.985Z,-0.43
2023-02-27T17:22:43.803Z,-0.52
2023-02-27T17:25:13.260Z,-0.56
2023-02-27T17:27:42.782Z,-0.51
2023-02-27T17:30:11.494Z,-0.67
2023-02-27T17:32:40.082Z,-0.56
2023-02-27T17:35:09.880Z,-0.52
2023-02-27T17:37:37.482Z,-0.42
2023-02-27T17:40:05.560Z,-0.83
2023-02-27T17:42:33.143Z,-1.04
2023-02-27T17:45:01.202Z,-0.83
2023-02-27T17:47:28.705Z,-0.84
2023-02-27T17:49:56.163Z,-1.03
2023-02-27T17:52:24.995Z,-1.08
2023-02-27T17:54:52.519Z,-1.12
2023-02-27T17:57:20.743Z,-1.06
2023-02-27T17:59:48.202Z,-1.18
2023-02-27T18:02:16.114Z,-1.12
2023-02-27T18:04:43.652Z,-1.06
2023-02-27T18:07:11.107Z,-1.09
2023-02-27T18:09:39.924Z,-1.00
2023-02-27T18:12:07.442Z,-1.08
2023-02-27T18:14:35.919Z,-0.93
2023-02-27T18:17:03.446Z,-1.15
2023-02-27T18:19:32.560Z,-1.08
2023-02-27T18:22:00.540Z,-1.15
2023-02-27T18:24:28.005Z,-1.21
2023-02-27T18:26:56.798Z,-1.21
2023-02-27T18:29:24.238Z,-1.37
2023-02-27T18:31:53.935Z,-1.35
2023-02-27T18:34:21.498Z,-1.15
2023-02-27T18:36:49.082Z,-1.40
2023-02-27T18:39:16.565Z,-1.35
2023-02-27T18:41:44.576Z,-1.32
2023-02-27T18:44:13.371Z,-1.40
2023-02-27T18:46:40.851Z,-1.34
2023-02-27T18:49:09.030Z,-1.31
2023-02-27T18:51:37.152Z,-1.29
2023-02-27T18:54:06.822Z,-1.26
2023-02-27T18:56:34.351Z,-1.44
2023-02-27T18:59:05.107Z,-1.42
2023-02-27T19:01:36.621Z,-1.38
2023-02-27T19:04:06.269Z,-1.45
2023-02-27T19:06:35.171Z,-1.37
2023-02-27T19:09:04.951Z,-1.57
2023-02-27T19:11:33.899Z,-1.54
2023-02-27T19:14:01.877Z,-1.51
2023-02-27T19:16:30.116Z,-1.45
2023-02-27T19:19:01.473Z,-1.53
2023-02-27T19:21:29.807Z,-1.86
2023-02-27T19:23:57.743Z,-1.74
2023-02-27T19:26:25.835Z,-1.61
2023-02-27T19:28:54.568Z,-1.72
2023-02-27T19:31:24.384Z,-1.66
2023-02-27T19:33:52.761Z,-1.73
2023-02-27T19:36:23.062Z,-1.77
2023-02-27T19:38:50.988Z,-1.63
2023-02-27T19:41:19.318Z,-1.72
2023-02-27T19:43:47.927Z,-1.68
2023-02-27T19:46:17.385Z,-1.93
2023-02-27T19:48:45.358Z,-1.81
2023-02-27T19:51:14.885Z,-1.52
2023-02-27T19:53:45.358Z,-1.96
2023-02-27T19:56:15.098Z,-1.79
2023-02-27T19:58:42.597Z,-1.75
2023-02-27T20:01:10.761Z,-1.40
2023-02-27T20:03:41.858Z,-1.75
2023-02-27T20:06:16.702Z,-1.75
2023-02-27T20:08:45.586Z,-1.57
2023-02-27T20:11:15.570Z,-1.63
2023-02-27T20:13:43.046Z,-1.53
2023-02-27T20:16:13.703Z,-1.40
2023-02-27T20:18:42.526Z,-1.90
2023-02-27T20:21:13.035Z,-1.91
2023-02-27T20:23:42.327Z,-1.81
2023-02-27T20:26:19.771Z,-1.69
2023-02-27T20:28:48.523Z,-1.79
2023-02-27T20:31:18.775Z,-1.93
2023-02-27T20:33:46.369Z,-1.88
2023-02-27T20:36:14.692Z,-2.04
2023-02-27T20:38:42.572Z,-1.98
2023-02-27T20:41:12.231Z,-2.04
2023-02-27T20:43:43.233Z,-2.08
2023-02-27T20:46:12.560Z,-2.28
2023-02-27T20:48:40.801Z,-2.31
2023-02-27T20:51:10.861Z,-2.27
2023-02-27T20:53:40.589Z,-2.13
2023-02-27T20:56:09.221Z,-2.17
2023-02-27T20:58:37.442Z,-2.14
2023-02-27T21:01:10.992Z,-2.18
2023-02-27T21:03:39.828Z,-2.28
2023-02-27T21:06:08.634Z,-2.31
2023-02-27T21:08:37.087Z,-2.25
2023-02-27T21:11:08.985Z,-2.34
2023-02-27T21:13:37.165Z,-2.34
2023-02-27T21:16:05.414Z,-2.29
2023-02-27T21:18:34.758Z,-2.36
2023-02-27T21:21:03.817Z,-2.34
2023-02-27T21:23:31.302Z,-2.31
2023-02-27T21:25:58.984Z,-2.31
2023-02-27T21:28:26.958Z,-2.39
2023-02-27T21:30:54.937Z,-2.34
2023-02-27T21:33:23.009Z,-2.39
2023-02-27T21:35:51.840Z,-2.45
2023-02-27T21:38:19.320Z,-2.46
2023-02-27T21:40:46.763Z,-2.36
2023-02-27T21:43:14.219Z,-2.38
2023-02-27T21:45:47.305Z,-2.47
2023-02-27T21:48:16.046Z,-2.58
2023-02-27T21:50:43.595Z,-2.49
2023-02-27T21:53:12.430Z,-2.56
2023-02-27T21:55:39.894Z,-2.49
2023-02-27T21:58:10.073Z,-2.57
2023-02-27T22:00:37.598Z,-2.42
2023-02-27T22:03:05.168Z,-2.44
2023-02-27T22:05:32.734Z,-2.39
2023-02-27T22:08:00.259Z,-2.33
2023-02-27T22:10:29.106Z,-2.44
2023-02-27T22:12:56.525Z,-2.37
2023-02-27T22:15:23.997Z,-2.47
2023-02-27T22:17:54.541Z,-2.44
2023-02-27T22:20:22.054Z,-2.37
2023-02-27T22:22:49.545Z,-2.36
2023-02-27T22:25:17.131Z,-2.23
2023-02-27T22:27:45.940Z,-2.19
2023-02-27T22:30:14.510Z,-2.19
2023-02-27T22:32:42.016Z,-2.35
2023-02-27T22:35:09.855Z,-2.28
2023-02-27T22:37:37.334Z,-2.20
2023-02-27T22:40:05.470Z,-2.15
2023-02-27T22:42:33.157Z,-2.08
2023-02-27T22:45:02.032Z,-2.24
2023-02-27T22:47:29.676Z,-2.31
2023-02-27T22:49:57.155Z,-2.43
2023-02-27T22:52:24.616Z,-2.36
2023-02-27T22:54:52.934Z,-2.28
2023-02-27T22:57:20.419Z,-2.29
2023-02-27T22:59:50.713Z,-2.27
2023-02-27T23:02:19.527Z,-2.25
2023-02-27T23:04:46.975Z,-2.43
2023-02-27T23:07:14.454Z,-2.29
2023-02-27T23:09:42.013Z,-2.29
2023-02-27T23:12:09.466Z,-2.36
2023-02-27T23:14:36.927Z,-2.57
2023-02-27T23:17:04.412Z,-2.45
2023-02-27T23:19:34.030Z,-2.29
2023-02-27T23:22:01.469Z,-2.39
2023-02-27T23:24:28.947Z,-2.48
2023-02-27T23:26:56.457Z,-2.50
2023-02-27T23:29:23.922Z,-2.48
2023-02-27T23:31:51.515Z,-2.56
2023-02-27T23:34:19.080Z,-2.55
2023-02-27T23:36:48.000Z,-2.48
2023-02-27T23:39:15.520Z,-2.50
2023-02-27T23:41:43.053Z,-2.56
2023-02-27T23:44:10.548Z,-2.60
2023-02-27T23:46:38.876Z,-2.58
2023-02-27T23:49:06.406Z,-2.68
2023-02-27T23:51:34.251Z,-2.60
2023-02-27T23:54:03.457Z,-2.66
2023-02-27T23:56:31.484Z,-2.59
2023-02-27T23:59:00.959Z,-2.61
